Archival Weather

Chicago O'Hare International

Chicago, Illinois (KORD)

Report from: Sunday, March 19, 2023 8:51 PM CDT
Current time: Friday, June 21, 2024 7:49 PM CDT

Current weather – Weather history – Daily summaries
Weather forecast

Temperature1.1°C (34.0°F)
Wind chill-3.9°C (25.0°F)
Dew point-10.6°C (12.9°F)
Winds 11 kts (5.7 m/s, 12.7 mph) Southwest (220°)
Visibility10 mi. (16.1 km)
Clouds Sky clear
Altimeter30.18 in.Hg (1022 mB)
Relative humidity41 %
Density altitude-1,971 ft. (-601 m)
Sea-level pressure102.3 kPa (1023 mB, 30.20 in.Hg)
Remarks System requires maintenance
Automated weather observing station with precipitation discriminator
Flight conditions Visual Meteorological Conditions
Raw dataKORD 200151Z 22011KT 10SM CLR 01/M11 A3018 RMK AO2 SLP228 T00111106 $
An error has occurred. This application may no longer respond until reloaded. Reload 🗙